sensor_id;sensor_type;location;lat;lon;timestamp;temperature;humidity
52947;DHT22;68773;40.400;17.260;2023-05-16T00:02:15;17.40;99.90
52947;DHT22;68773;40.400;17.260;2023-05-16T00:04:41;17.10;99.90
52947;DHT22;68773;40.400;17.260;2023-05-16T00:07:07;16.80;99.90
52947;DHT22;68773;40.400;17.260;2023-05-16T00:09:33;16.70;99.90
52947;DHT22;68773;40.400;17.260;2023-05-16T00:11:58;17.00;99.90
52947;DHT22;68773;40.400;17.260;2023-05-16T00:14:24;16.90;99.90
52947;DHT22;68773;40.400;17.260;2023-05-16T00:16:52;16.90;99.90
52947;DHT22;68773;40.400;17.260;2023-05-16T00:19:19;16.70;99.90
52947;DHT22;68773;40.400;17.260;2023-05-16T00:21:45;16.90;99.90
52947;DHT22;68773;40.400;17.260;2023-05-16T00:24:10;16.90;99.90
52947;DHT22;68773;40.400;17.260;2023-05-16T00:26:36;16.70;99.90
52947;DHT22;68773;40.400;17.260;2023-05-16T00:29:02;16.60;99.90
52947;DHT22;68773;40.400;17.260;2023-05-16T00:31:28;16.60;99.90
52947;DHT22;68773;40.400;17.260;2023-05-16T00:33:54;16.70;99.90
52947;DHT22;68773;40.400;17.260;2023-05-16T00:36:19;16.70;99.90
52947;DHT22;68773;40.400;17.260;2023-05-16T00:38:46;16.90;99.90
52947;DHT22;68773;40.400;17.260;2023-05-16T00:41:12;16.50;99.90
52947;DHT22;68773;40.400;17.260;2023-05-16T00:43:38;16.60;99.90
52947;DHT22;68773;40.400;17.260;2023-05-16T00:46:04;16.60;99.90
52947;DHT22;68773;40.400;17.260;2023-05-16T00:48:31;16.30;99.90
52947;DHT22;68773;40.400;17.260;2023-05-16T00:50:57;16.40;99.90
52947;DHT22;68773;40.400;17.260;2023-05-16T00:53:23;16.40;99.90
52947;DHT22;68773;40.400;17.260;2023-05-16T00:55:50;16.50;99.90
52947;DHT22;68773;40.400;17.260;2023-05-16T00:58:17;16.50;99.90
52947;DHT22;68773;40.400;17.260;2023-05-16T01:00:44;16.40;99.90
52947;DHT22;68773;40.400;17.260;2023-05-16T01:03:10;16.40;99.90
52947;DHT22;68773;40.400;17.260;2023-05-16T01:05:36;16.50;99.90
52947;DHT22;68773;40.400;17.260;2023-05-16T01:08:02;16.20;99.90
52947;DHT22;68773;40.400;17.260;2023-05-16T01:10:43;16.50;99.90
52947;DHT22;68773;40.400;17.260;2023-05-16T01:16:23;16.20;99.90
52947;DHT22;68773;40.400;17.260;2023-05-16T01:22:05;16.40;99.90
52947;DHT22;68773;40.400;17.260;2023-05-16T01:27:12;16.30;99.90
52947;DHT22;68773;40.400;17.260;2023-05-16T01:29:38;16.20;99.90
52947;DHT22;68773;40.400;17.260;2023-05-16T01:32:04;16.40;99.90
52947;DHT22;68773;40.400;17.260;2023-05-16T01:34:30;16.50;99.90
52947;DHT22;68773;40.400;17.260;2023-05-16T01:37:11;16.30;99.90
52947;DHT22;68773;40.400;17.260;2023-05-16T01:39:59;16.40;99.90
52947;DHT22;68773;40.400;17.260;2023-05-16T01:42:32;16.60;99.90
52947;DHT22;68773;40.400;17.260;2023-05-16T01:45:07;16.10;99.90
52947;DHT22;68773;40.400;17.260;2023-05-16T01:47:38;16.30;99.90
52947;DHT22;68773;40.400;17.260;2023-05-16T01:50:15;16.20;99.90
52947;DHT22;68773;40.400;17.260;2023-05-16T01:52:50;16.30;99.90
52947;DHT22;68773;40.400;17.260;2023-05-16T01:57:55;16.20;99.90
52947;DHT22;68773;40.400;17.260;2023-05-16T02:00:21;16.50;99.90
52947;DHT22;68773;40.400;17.260;2023-05-16T02:02:47;16.30;99.90
52947;DHT22;68773;40.400;17.260;2023-05-16T02:05:13;16.40;99.90
52947;DHT22;68773;40.400;17.260;2023-05-16T02:07:39;16.10;99.90
52947;DHT22;68773;40.400;17.260;2023-05-16T02:10:06;16.20;99.90
52947;DHT22;68773;40.400;17.260;2023-05-16T02:12:32;16.00;99.90
52947;DHT22;68773;40.400;17.260;2023-05-16T02:14:58;16.10;99.90
52947;DHT22;68773;40.400;17.260;2023-05-16T02:17:23;16.20;99.90
52947;DHT22;68773;40.400;17.260;2023-05-16T02:19:49;16.40;99.90
52947;DHT22;68773;40.400;17.260;2023-05-16T02:22:15;16.10;99.90
52947;DHT22;68773;40.400;17.260;2023-05-16T02:24:40;16.20;99.90
52947;DHT22;68773;40.400;17.260;2023-05-16T02:27:06;16.20;99.90
52947;DHT22;68773;40.400;17.260;2023-05-16T02:29:32;16.30;99.90
52947;DHT22;68773;40.400;17.260;2023-05-16T02:31:58;16.10;99.90
52947;DHT22;68773;40.400;17.260;2023-05-16T02:34:23;16.20;99.90
52947;DHT22;68773;40.400;17.260;2023-05-16T02:36:49;16.20;99.90
52947;DHT22;68773;40.400;17.260;2023-05-16T02:39:15;16.10;99.90
52947;DHT22;68773;40.400;17.260;2023-05-16T02:41:41;16.10;99.90
52947;DHT22;68773;40.400;17.260;2023-05-16T02:44:06;16.00;99.90
52947;DHT22;68773;40.400;17.260;2023-05-16T02:46:33;16.20;99.90
52947;DHT22;68773;40.400;17.260;2023-05-16T02:49:00;16.00;99.90
52947;DHT22;68773;40.400;17.260;2023-05-16T02:51:27;16.10;99.90
52947;DHT22;68773;40.400;17.260;2023-05-16T02:53:54;16.20;99.90
52947;DHT22;68773;40.400;17.260;2023-05-16T02:56:24;16.20;99.90
52947;DHT22;68773;40.400;17.260;2023-05-16T02:58:52;16.10;99.90
52947;DHT22;68773;40.400;17.260;2023-05-16T03:01:18;16.00;99.90
52947;DHT22;68773;40.400;17.260;2023-05-16T03:03:43;16.20;99.90
52947;DHT22;68773;40.400;17.260;2023-05-16T03:06:09;15.80;99.90
52947;DHT22;68773;40.400;17.260;2023-05-16T03:08:35;15.90;99.90
52947;DHT22;68773;40.400;17.260;2023-05-16T03:11:01;16.30;99.90
52947;DHT22;68773;40.400;17.260;2023-05-16T03:13:27;16.00;99.90
52947;DHT22;68773;40.400;17.260;2023-05-16T03:15:54;16.10;99.90
52947;DHT22;68773;40.400;17.260;2023-05-16T03:18:20;16.10;99.90
52947;DHT22;68773;40.400;17.260;2023-05-16T03:20:46;16.10;99.90
52947;DHT22;68773;40.400;17.260;2023-05-16T03:23:12;16.00;99.90
52947;DHT22;68773;40.400;17.260;2023-05-16T03:25:37;16.30;99.90
52947;DHT22;68773;40.400;17.260;2023-05-16T03:28:05;16.00;99.90
52947;DHT22;68773;40.400;17.260;2023-05-16T03:30:31;16.10;99.90
52947;DHT22;68773;40.400;17.260;2023-05-16T03:32:57;16.10;99.90
52947;DHT22;68773;40.400;17.260;2023-05-16T03:35:22;16.10;99.90
52947;DHT22;68773;40.400;17.260;2023-05-16T03:37:49;16.10;99.90
52947;DHT22;68773;40.400;17.260;2023-05-16T03:40:15;16.00;99.90
52947;DHT22;68773;40.400;17.260;2023-05-16T03:42:40;16.00;99.90
52947;DHT22;68773;40.400;17.260;2023-05-16T03:45:07;16.30;99.90
52947;DHT22;68773;40.400;17.260;2023-05-16T03:47:33;15.90;99.90
52947;DHT22;68773;40.400;17.260;2023-05-16T03:49:59;15.90;99.90
52947;DHT22;68773;40.400;17.260;2023-05-16T03:52:25;16.00;99.90
52947;DHT22;68773;40.400;17.260;2023-05-16T03:54:50;15.90;99.90
52947;DHT22;68773;40.400;17.260;2023-05-16T03:57:16;16.00;99.90
52947;DHT22;68773;40.400;17.260;2023-05-16T03:59:42;16.00;99.90
52947;DHT22;68773;40.400;17.260;2023-05-16T04:02:08;16.20;99.90
52947;DHT22;68773;40.400;17.260;2023-05-16T04:04:34;15.80;99.90
52947;DHT22;68773;40.400;17.260;2023-05-16T04:07:01;15.90;99.90
52947;DHT22;68773;40.400;17.260;2023-05-16T04:09:26;16.00;99.90
52947;DHT22;68773;40.400;17.260;2023-05-16T04:11:52;16.20;99.90
52947;DHT22;68773;40.400;17.260;2023-05-16T04:14:24;16.00;99.90
52947;DHT22;68773;40.400;17.260;2023-05-16T04:16:50;15.90;99.90
52947;DHT22;68773;40.400;17.260;2023-05-16T04:19:16;15.90;99.90
52947;DHT22;68773;40.400;17.260;2023-05-16T04:21:41;16.00;99.90
52947;DHT22;68773;40.400;17.260;2023-05-16T04:24:07;16.10;99.90
52947;DHT22;68773;40.400;17.260;2023-05-16T04:26:33;16.10;99.90
52947;DHT22;68773;40.400;17.260;2023-05-16T04:28:59;16.10;99.90
52947;DHT22;68773;40.400;17.260;2023-05-16T04:31:25;16.10;99.90
52947;DHT22;68773;40.400;17.260;2023-05-16T04:33:51;16.10;99.90
52947;DHT22;68773;40.400;17.260;2023-05-16T04:36:17;16.20;99.90
52947;DHT22;68773;40.400;17.260;2023-05-16T04:38:43;16.20;99.90
52947;DHT22;68773;40.400;17.260;2023-05-16T04:41:11;16.20;99.90
52947;DHT22;68773;40.400;17.260;2023-05-16T04:43:37;16.10;99.90
52947;DHT22;68773;40.400;17.260;2023-05-16T04:46:03;15.90;99.90
52947;DHT22;68773;40.400;17.260;2023-05-16T04:48:29;16.10;99.90
52947;DHT22;68773;40.400;17.260;2023-05-16T04:50:55;16.50;99.90
52947;DHT22;68773;40.400;17.260;2023-05-16T04:53:22;16.30;99.90
52947;DHT22;68773;40.400;17.260;2023-05-16T04:55:47;16.30;99.90
52947;DHT22;68773;40.400;17.260;2023-05-16T04:58:13;16.00;99.90
52947;DHT22;68773;40.400;17.260;2023-05-16T05:00:39;16.40;99.90
52947;DHT22;68773;40.400;17.260;2023-05-16T05:03:04;16.30;99.90
52947;DHT22;68773;40.400;17.260;2023-05-16T05:05:31;16.10;99.90
52947;DHT22;68773;40.400;17.260;2023-05-16T05:07:57;16.40;99.90
52947;DHT22;68773;40.400;17.260;2023-05-16T05:10:23;16.50;99.90
52947;DHT22;68773;40.400;17.260;2023-05-16T05:12:49;16.30;99.90
52947;DHT22;68773;40.400;17.260;2023-05-16T05:15:15;16.40;99.90
52947;DHT22;68773;40.400;17.260;2023-05-16T05:17:40;16.10;99.90
52947;DHT22;68773;40.400;17.260;2023-05-16T05:20:07;16.50;99.90
52947;DHT22;68773;40.400;17.260;2023-05-16T05:22:33;16.50;99.90
52947;DHT22;68773;40.400;17.260;2023-05-16T05:24:59;16.40;99.90
52947;DHT22;68773;40.400;17.260;2023-05-16T05:27:25;16.20;99.90
52947;DHT22;68773;40.400;17.260;2023-05-16T05:29:51;16.30;99.90
52947;DHT22;68773;40.400;17.260;2023-05-16T05:32:17;16.50;99.90
52947;DHT22;68773;40.400;17.260;2023-05-16T05:34:42;16.40;99.90
52947;DHT22;68773;40.400;17.260;2023-05-16T05:37:08;16.20;99.90
52947;DHT22;68773;40.400;17.260;2023-05-16T05:39:34;16.40;99.90
52947;DHT22;68773;40.400;17.260;2023-05-16T05:42:00;16.10;99.90
52947;DHT22;68773;40.400;17.260;2023-05-16T05:44:29;16.10;99.90
52947;DHT22;68773;40.400;17.260;2023-05-16T05:46:55;16.20;99.90
52947;DHT22;68773;40.400;17.260;2023-05-16T05:49:23;15.90;99.90
52947;DHT22;68773;40.400;17.260;2023-05-16T05:51:49;16.50;99.90
52947;DHT22;68773;40.400;17.260;2023-05-16T05:54:17;16.10;99.90
52947;DHT22;68773;40.400;17.260;2023-05-16T05:56:43;16.10;99.90
52947;DHT22;68773;40.400;17.260;2023-05-16T05:59:09;16.30;99.90
52947;DHT22;68773;40.400;17.260;2023-05-16T06:01:35;16.30;99.90
52947;DHT22;68773;40.400;17.260;2023-05-16T06:04:01;16.50;99.90
52947;DHT22;68773;40.400;17.260;2023-05-16T06:06:27;16.30;99.90
52947;DHT22;68773;40.400;17.260;2023-05-16T06:08:53;16.50;99.90
52947;DHT22;68773;40.400;17.260;2023-05-16T06:11:19;16.20;99.90
52947;DHT22;68773;40.400;17.260;2023-05-16T06:13:46;16.70;99.90
52947;DHT22;68773;40.400;17.260;2023-05-16T06:16:12;16.40;99.90
52947;DHT22;68773;40.400;17.260;2023-05-16T06:18:38;16.50;99.90
52947;DHT22;68773;40.400;17.260;2023-05-16T06:21:04;16.40;99.90
52947;DHT22;68773;40.400;17.260;2023-05-16T06:23:31;16.70;99.90
52947;DHT22;68773;40.400;17.260;2023-05-16T06:25:56;16.80;99.90
52947;DHT22;68773;40.400;17.260;2023-05-16T06:28:22;16.40;99.90
52947;DHT22;68773;40.400;17.260;2023-05-16T06:30:48;16.70;99.90
52947;DHT22;68773;40.400;17.260;2023-05-16T06:33:19;16.50;99.90
52947;DHT22;68773;40.400;17.260;2023-05-16T06:35:45;16.90;99.90
52947;DHT22;68773;40.400;17.260;2023-05-16T06:38:12;16.70;99.90
52947;DHT22;68773;40.400;17.260;2023-05-16T06:40:38;16.60;99.90
52947;DHT22;68773;40.400;17.260;2023-05-16T06:43:03;16.50;99.90
52947;DHT22;68773;40.400;17.260;2023-05-16T06:45:29;16.90;99.90
52947;DHT22;68773;40.400;17.260;2023-05-16T06:47:55;16.60;99.90
52947;DHT22;68773;40.400;17.260;2023-05-16T06:50:21;16.80;99.90
52947;DHT22;68773;40.400;17.260;2023-05-16T06:52:47;16.70;99.90
52947;DHT22;68773;40.400;17.260;2023-05-16T06:55:13;16.50;99.90
52947;DHT22;68773;40.400;17.260;2023-05-16T06:57:39;16.40;99.90
52947;DHT22;68773;40.400;17.260;2023-05-16T07:00:05;17.00;99.90
52947;DHT22;68773;40.400;17.260;2023-05-16T07:02:31;16.70;99.90
52947;DHT22;68773;40.400;17.260;2023-05-16T07:04:57;16.50;99.90
52947;DHT22;68773;40.400;17.260;2023-05-16T07:07:23;16.70;99.90
52947;DHT22;68773;40.400;17.260;2023-05-16T07:09:49;16.60;99.90
52947;DHT22;68773;40.400;17.260;2023-05-16T07:12:14;16.80;99.90
52947;DHT22;68773;40.400;17.260;2023-05-16T07:14:40;17.00;99.90
52947;DHT22;68773;40.400;17.260;2023-05-16T07:17:08;16.80;99.90
52947;DHT22;68773;40.400;17.260;2023-05-16T07:19:34;16.80;99.90
52947;DHT22;68773;40.400;17.260;2023-05-16T07:22:00;17.20;99.90
52947;DHT22;68773;40.400;17.260;2023-05-16T07:24:26;16.60;99.90
52947;DHT22;68773;40.400;17.260;2023-05-16T07:26:51;16.70;99.90
52947;DHT22;68773;40.400;17.260;2023-05-16T07:29:17;16.70;99.90
52947;DHT22;68773;40.400;17.260;2023-05-16T07:31:43;16.60;99.90
52947;DHT22;68773;40.400;17.260;2023-05-16T07:34:09;16.60;99.90
52947;DHT22;68773;40.400;17.260;2023-05-16T07:36:35;16.80;99.90
52947;DHT22;68773;40.400;17.260;2023-05-16T07:39:01;16.90;99.90
52947;DHT22;68773;40.400;17.260;2023-05-16T07:41:28;17.30;99.90
52947;DHT22;68773;40.400;17.260;2023-05-16T07:43:54;17.00;99.90
52947;DHT22;68773;40.400;17.260;2023-05-16T07:46:20;16.90;99.90
52947;DHT22;68773;40.400;17.260;2023-05-16T07:48:45;17.00;99.90
52947;DHT22;68773;40.400;17.260;2023-05-16T07:51:11;17.30;99.90
52947;DHT22;68773;40.400;17.260;2023-05-16T07:53:37;17.20;99.90
52947;DHT22;68773;40.400;17.260;2023-05-16T07:56:03;17.60;99.90
52947;DHT22;68773;40.400;17.260;2023-05-16T07:58:29;17.70;99.90
52947;DHT22;68773;40.400;17.260;2023-05-16T08:00:55;17.50;99.90
52947;DHT22;68773;40.400;17.260;2023-05-16T08:03:20;17.90;99.90
52947;DHT22;68773;40.400;17.260;2023-05-16T08:05:47;17.40;99.90
52947;DHT22;68773;40.400;17.260;2023-05-16T08:08:13;17.30;99.90
52947;DHT22;68773;40.400;17.260;2023-05-16T08:10:39;17.20;99.90
52947;DHT22;68773;40.400;17.260;2023-05-16T08:13:05;17.60;99.90
52947;DHT22;68773;40.400;17.260;2023-05-16T08:15:31;17.80;99.90
52947;DHT22;68773;40.400;17.260;2023-05-16T08:17:57;17.30;99.90
52947;DHT22;68773;40.400;17.260;2023-05-16T08:20:23;17.20;99.90
52947;DHT22;68773;40.400;17.260;2023-05-16T08:22:50;17.10;99.90
52947;DHT22;68773;40.400;17.260;2023-05-16T08:25:15;17.30;99.90
52947;DHT22;68773;40.400;17.260;2023-05-16T08:27:43;17.30;99.90
52947;DHT22;68773;40.400;17.260;2023-05-16T08:30:10;17.50;99.90
52947;DHT22;68773;40.400;17.260;2023-05-16T08:32:36;17.30;99.90
52947;DHT22;68773;40.400;17.260;2023-05-16T08:35:02;17.20;99.90
52947;DHT22;68773;40.400;17.260;2023-05-16T08:37:28;16.90;99.90
52947;DHT22;68773;40.400;17.260;2023-05-16T08:39:54;16.90;99.90
52947;DHT22;68773;40.400;17.260;2023-05-16T08:42:19;17.10;99.90
52947;DHT22;68773;40.400;17.260;2023-05-16T08:44:45;17.00;99.90
52947;DHT22;68773;40.400;17.260;2023-05-16T08:47:17;17.10;99.90
52947;DHT22;68773;40.400;17.260;2023-05-16T08:49:46;16.90;99.90
52947;DHT22;68773;40.400;17.260;2023-05-16T08:52:13;16.70;99.90
52947;DHT22;68773;40.400;17.260;2023-05-16T08:54:43;16.90;99.90
52947;DHT22;68773;40.400;17.260;2023-05-16T08:57:09;16.90;99.90
52947;DHT22;68773;40.400;17.260;2023-05-16T08:59:35;16.90;99.90
52947;DHT22;68773;40.400;17.260;2023-05-16T09:02:02;17.10;99.90
52947;DHT22;68773;40.400;17.260;2023-05-16T09:04:29;17.20;99.90
52947;DHT22;68773;40.400;17.260;2023-05-16T09:06:55;17.60;99.90
52947;DHT22;68773;40.400;17.260;2023-05-16T09:09:22;17.30;99.90
52947;DHT22;68773;40.400;17.260;2023-05-16T09:11:48;17.30;99.90
52947;DHT22;68773;40.400;17.260;2023-05-16T09:14:13;17.00;99.90
52947;DHT22;68773;40.400;17.260;2023-05-16T09:16:39;17.10;99.90
52947;DHT22;68773;40.400;17.260;2023-05-16T09:19:05;16.90;99.90
52947;DHT22;68773;40.400;17.260;2023-05-16T09:21:32;17.10;99.90
52947;DHT22;68773;40.400;17.260;2023-05-16T09:24:06;17.10;99.90
52947;DHT22;68773;40.400;17.260;2023-05-16T09:26:34;17.00;99.90
52947;DHT22;68773;40.400;17.260;2023-05-16T09:28:59;17.20;99.90
52947;DHT22;68773;40.400;17.260;2023-05-16T09:31:27;17.50;99.90
52947;DHT22;68773;40.400;17.260;2023-05-16T09:34:01;17.10;99.90
52947;DHT22;68773;40.400;17.260;2023-05-16T09:36:27;17.40;99.90
52947;DHT22;68773;40.400;17.260;2023-05-16T09:38:53;17.80;99.90
52947;DHT22;68773;40.400;17.260;2023-05-16T09:41:20;17.30;99.90
52947;DHT22;68773;40.400;17.260;2023-05-16T09:43:46;17.40;99.90
52947;DHT22;68773;40.400;17.260;2023-05-16T09:46:15;17.50;99.90
52947;DHT22;68773;40.400;17.260;2023-05-16T09:48:47;17.60;99.90
52947;DHT22;68773;40.400;17.260;2023-05-16T09:51:14;17.50;99.90
52947;DHT22;68773;40.400;17.260;2023-05-16T09:53:40;17.80;99.90
52947;DHT22;68773;40.400;17.260;2023-05-16T09:56:09;17.90;99.90
52947;DHT22;68773;40.400;17.260;2023-05-16T09:58:37;17.90;99.90
52947;DHT22;68773;40.400;17.260;2023-05-16T10:01:04;18.10;99.90
52947;DHT22;68773;40.400;17.260;2023-05-16T10:03:30;18.20;99.90
52947;DHT22;68773;40.400;17.260;2023-05-16T10:05:56;18.00;99.90
52947;DHT22;68773;40.400;17.260;2023-05-16T10:08:23;18.00;99.90
52947;DHT22;68773;40.400;17.260;2023-05-16T10:10:56;18.00;99.90
52947;DHT22;68773;40.400;17.260;2023-05-16T10:13:28;18.30;99.90
52947;DHT22;68773;40.400;17.260;2023-05-16T10:15:55;18.10;99.90
52947;DHT22;68773;40.400;17.260;2023-05-16T10:18:23;18.20;99.90
52947;DHT22;68773;40.400;17.260;2023-05-16T10:20:54;18.60;99.90
52947;DHT22;68773;40.400;17.260;2023-05-16T10:23:24;18.60;99.90
52947;DHT22;68773;40.400;17.260;2023-05-16T10:25:51;18.20;99.90
52947;DHT22;68773;40.400;17.260;2023-05-16T10:28:17;18.10;99.90
52947;DHT22;68773;40.400;17.260;2023-05-16T10:30:46;17.90;99.90
52947;DHT22;68773;40.400;17.260;2023-05-16T10:33:16;18.00;99.90
52947;DHT22;68773;40.400;17.260;2023-05-16T10:35:43;17.80;99.90
52947;DHT22;68773;40.400;17.260;2023-05-16T10:38:12;18.40;99.90
52947;DHT22;68773;40.400;17.260;2023-05-16T10:40:39;18.70;99.90
52947;DHT22;68773;40.400;17.260;2023-05-16T10:43:07;18.50;99.90
52947;DHT22;68773;40.400;17.260;2023-05-16T10:45:34;18.60;99.90
52947;DHT22;68773;40.400;17.260;2023-05-16T10:48:04;18.50;99.90
52947;DHT22;68773;40.400;17.260;2023-05-16T10:50:37;18.40;99.90
52947;DHT22;68773;40.400;17.260;2023-05-16T10:56:07;18.30;99.90
52947;DHT22;68773;40.400;17.260;2023-05-16T11:01:27;18.20;99.90
52947;DHT22;68773;40.400;17.260;2023-05-16T11:06:25;18.50;99.90
52947;DHT22;68773;40.400;17.260;2023-05-16T11:11:40;18.80;99.90
52947;DHT22;68773;40.400;17.260;2023-05-16T11:14:06;19.10;99.90
52947;DHT22;68773;40.400;17.260;2023-05-16T11:16:33;18.80;99.90
52947;DHT22;68773;40.400;17.260;2023-05-16T11:19:06;18.80;99.90
52947;DHT22;68773;40.400;17.260;2023-05-16T11:24:30;18.80;99.90
52947;DHT22;68773;40.400;17.260;2023-05-16T11:26:58;18.80;99.90
52947;DHT22;68773;40.400;17.260;2023-05-16T11:29:26;18.90;99.90
52947;DHT22;68773;40.400;17.260;2023-05-16T11:31:53;19.30;99.90
52947;DHT22;68773;40.400;17.260;2023-05-16T11:34:18;19.20;99.90
52947;DHT22;68773;40.400;17.260;2023-05-16T11:36:44;19.00;99.90
52947;DHT22;68773;40.400;17.260;2023-05-16T11:39:10;18.90;99.90
52947;DHT22;68773;40.400;17.260;2023-05-16T11:41:37;19.20;99.90
52947;DHT22;68773;40.400;17.260;2023-05-16T11:44:03;19.10;99.90
52947;DHT22;68773;40.400;17.260;2023-05-16T11:46:32;19.60;99.90
52947;DHT22;68773;40.400;17.260;2023-05-16T11:48:58;18.80;99.90
52947;DHT22;68773;40.400;17.260;2023-05-16T11:51:23;19.00;99.90
52947;DHT22;68773;40.400;17.260;2023-05-16T11:53:50;19.20;99.90
52947;DHT22;68773;40.400;17.260;2023-05-16T11:56:15;19.10;99.90
52947;DHT22;68773;40.400;17.260;2023-05-16T11:58:41;19.00;99.90
52947;DHT22;68773;40.400;17.260;2023-05-16T12:01:07;19.00;99.90
52947;DHT22;68773;40.400;17.260;2023-05-16T12:03:34;19.50;99.90
52947;DHT22;68773;40.400;17.260;2023-05-16T12:06:01;19.30;99.90
52947;DHT22;68773;40.400;17.260;2023-05-16T12:08:27;19.60;99.90
52947;DHT22;68773;40.400;17.260;2023-05-16T12:10:53;19.50;99.90
52947;DHT22;68773;40.400;17.260;2023-05-16T12:13:22;19.80;99.90
52947;DHT22;68773;40.400;17.260;2023-05-16T12:15:49;19.60;99.90
52947;DHT22;68773;40.400;17.260;2023-05-16T12:18:16;19.50;99.90
52947;DHT22;68773;40.400;17.260;2023-05-16T12:20:44;19.20;99.90
52947;DHT22;68773;40.400;17.260;2023-05-16T12:23:11;18.90;99.90
52947;DHT22;68773;40.400;17.260;2023-05-16T12:25:39;18.80;99.90
52947;DHT22;68773;40.400;17.260;2023-05-16T12:28:12;19.00;99.90
52947;DHT22;68773;40.400;17.260;2023-05-16T12:30:43;18.70;99.90
52947;DHT22;68773;40.400;17.260;2023-05-16T12:33:10;19.40;99.90
52947;DHT22;68773;40.400;17.260;2023-05-16T12:35:39;19.30;99.90
52947;DHT22;68773;40.400;17.260;2023-05-16T12:38:09;19.80;99.90
52947;DHT22;68773;40.400;17.260;2023-05-16T12:40:37;19.50;99.90
52947;DHT22;68773;40.400;17.260;2023-05-16T12:43:13;19.60;99.90
52947;DHT22;68773;40.400;17.260;2023-05-16T12:45:39;19.40;99.90
52947;DHT22;68773;40.400;17.260;2023-05-16T12:48:15;19.30;99.90
52947;DHT22;68773;40.400;17.260;2023-05-16T12:50:44;19.80;99.90
52947;DHT22;68773;40.400;17.260;2023-05-16T12:53:16;19.30;99.90
52947;DHT22;68773;40.400;17.260;2023-05-16T12:55:42;19.30;99.90
52947;DHT22;68773;40.400;17.260;2023-05-16T12:58:10;19.60;99.90
52947;DHT22;68773;40.400;17.260;2023-05-16T13:00:36;19.20;99.90
52947;DHT22;68773;40.400;17.260;2023-05-16T13:03:04;19.20;99.90
52947;DHT22;68773;40.400;17.260;2023-05-16T13:05:30;19.40;99.90
52947;DHT22;68773;40.400;17.260;2023-05-16T13:07:56;19.40;99.90
52947;DHT22;68773;40.400;17.260;2023-05-16T13:10:22;19.70;99.90
52947;DHT22;68773;40.400;17.260;2023-05-16T13:12:47;19.30;99.90
52947;DHT22;68773;40.400;17.260;2023-05-16T13:15:13;19.50;99.90
52947;DHT22;68773;40.400;17.260;2023-05-16T13:17:41;19.50;99.90
52947;DHT22;68773;40.400;17.260;2023-05-16T13:20:08;20.10;99.90
52947;DHT22;68773;40.400;17.260;2023-05-16T13:22:41;19.60;99.90
52947;DHT22;68773;40.400;17.260;2023-05-16T13:25:08;19.50;99.90
52947;DHT22;68773;40.400;17.260;2023-05-16T13:27:35;19.40;99.90
52947;DHT22;68773;40.400;17.260;2023-05-16T13:30:01;19.40;99.90
52947;DHT22;68773;40.400;17.260;2023-05-16T13:32:28;20.00;99.90
52947;DHT22;68773;40.400;17.260;2023-05-16T13:34:54;20.50;99.90
52947;DHT22;68773;40.400;17.260;2023-05-16T13:37:20;20.50;99.90
52947;DHT22;68773;40.400;17.260;2023-05-16T13:39:49;20.70;99.90
52947;DHT22;68773;40.400;17.260;2023-05-16T13:42:15;20.50;99.90
52947;DHT22;68773;40.400;17.260;2023-05-16T13:44:41;19.90;99.90
52947;DHT22;68773;40.400;17.260;2023-05-16T13:47:08;20.10;99.90
52947;DHT22;68773;40.400;17.260;2023-05-16T13:49:33;20.20;99.90
52947;DHT22;68773;40.400;17.260;2023-05-16T13:51:59;19.80;99.90
52947;DHT22;68773;40.400;17.260;2023-05-16T13:54:26;19.40;99.90
52947;DHT22;68773;40.400;17.260;2023-05-16T13:56:51;18.80;99.90
52947;DHT22;68773;40.400;17.260;2023-05-16T13:59:17;18.70;99.90
52947;DHT22;68773;40.400;17.260;2023-05-16T14:01:43;18.70;99.90
52947;DHT22;68773;40.400;17.260;2023-05-16T14:04:09;19.00;99.90
52947;DHT22;68773;40.400;17.260;2023-05-16T14:06:34;18.80;99.90
52947;DHT22;68773;40.400;17.260;2023-05-16T14:09:00;18.60;99.90
52947;DHT22;68773;40.400;17.260;2023-05-16T14:11:26;18.50;99.90
52947;DHT22;68773;40.400;17.260;2023-05-16T14:13:54;18.90;99.90
52947;DHT22;68773;40.400;17.260;2023-05-16T14:16:20;18.50;99.90
52947;DHT22;68773;40.400;17.260;2023-05-16T14:18:48;18.30;99.90
52947;DHT22;68773;40.400;17.260;2023-05-16T14:21:17;18.30;99.90
52947;DHT22;68773;40.400;17.260;2023-05-16T14:23:42;18.40;99.90
52947;DHT22;68773;40.400;17.260;2023-05-16T14:26:08;18.20;99.90
52947;DHT22;68773;40.400;17.260;2023-05-16T14:28:34;18.50;99.90
52947;DHT22;68773;40.400;17.260;2023-05-16T14:31:01;18.10;99.90
52947;DHT22;68773;40.400;17.260;2023-05-16T14:33:27;18.30;99.90
52947;DHT22;68773;40.400;17.260;2023-05-16T14:35:52;18.40;99.90
52947;DHT22;68773;40.400;17.260;2023-05-16T14:38:19;18.80;99.90
52947;DHT22;68773;40.400;17.260;2023-05-16T14:40:45;18.60;99.90
52947;DHT22;68773;40.400;17.260;2023-05-16T14:43:11;18.60;99.90
52947;DHT22;68773;40.400;17.260;2023-05-16T14:45:37;18.60;99.90
52947;DHT22;68773;40.400;17.260;2023-05-16T14:48:07;18.70;99.90
52947;DHT22;68773;40.400;17.260;2023-05-16T14:50:33;18.10;99.90
52947;DHT22;68773;40.400;17.260;2023-05-16T14:52:59;18.40;99.90
52947;DHT22;68773;40.400;17.260;2023-05-16T14:55:25;18.30;99.90
52947;DHT22;68773;40.400;17.260;2023-05-16T14:57:51;18.40;99.90
52947;DHT22;68773;40.400;17.260;2023-05-16T15:00:22;18.40;99.90
52947;DHT22;68773;40.400;17.260;2023-05-16T15:02:49;18.20;99.90
52947;DHT22;68773;40.400;17.260;2023-05-16T15:05:15;18.10;99.90
52947;DHT22;68773;40.400;17.260;2023-05-16T15:07:40;18.20;99.90
52947;DHT22;68773;40.400;17.260;2023-05-16T15:10:07;18.20;99.90
52947;DHT22;68773;40.400;17.260;2023-05-16T15:12:32;18.40;99.90
52947;DHT22;68773;40.400;17.260;2023-05-16T15:14:58;17.90;99.90
52947;DHT22;68773;40.400;17.260;2023-05-16T15:17:24;18.00;99.90
52947;DHT22;68773;40.400;17.260;2023-05-16T15:19:50;18.00;99.90
52947;DHT22;68773;40.400;17.260;2023-05-16T15:22:17;18.10;99.90
52947;DHT22;68773;40.400;17.260;2023-05-16T15:24:43;17.90;99.90
52947;DHT22;68773;40.400;17.260;2023-05-16T15:27:09;17.80;99.90
52947;DHT22;68773;40.400;17.260;2023-05-16T15:29:34;17.90;99.90
52947;DHT22;68773;40.400;17.260;2023-05-16T15:32:03;17.90;99.90
52947;DHT22;68773;40.400;17.260;2023-05-16T15:34:30;17.90;99.90
52947;DHT22;68773;40.400;17.260;2023-05-16T15:36:57;17.90;99.90
52947;DHT22;68773;40.400;17.260;2023-05-16T15:39:25;18.10;99.90